sensor_id;sensor_type;location;lat;lon;timestamp;temperature;humidity
45785;DHT22;31489;51.404;5.474;2023-09-19T00:02:23;19.30;73.90
45785;DHT22;31489;51.404;5.474;2023-09-19T00:04:49;19.30;73.90
45785;DHT22;31489;51.404;5.474;2023-09-19T00:07:15;19.30;73.90
45785;DHT22;31489;51.404;5.474;2023-09-19T00:09:41;19.30;73.90
45785;DHT22;31489;51.404;5.474;2023-09-19T00:12:09;19.20;74.10
45785;DHT22;31489;51.404;5.474;2023-09-19T00:14:35;19.20;74.70
45785;DHT22;31489;51.404;5.474;2023-09-19T00:17:04;19.20;74.00
45785;DHT22;31489;51.404;5.474;2023-09-19T00:19:36;19.20;74.70
45785;DHT22;31489;51.404;5.474;2023-09-19T00:22:03;19.20;74.10
45785;DHT22;31489;51.404;5.474;2023-09-19T00:24:32;19.20;74.10
45785;DHT22;31489;51.404;5.474;2023-09-19T00:26:57;19.20;74.00
45785;DHT22;31489;51.404;5.474;2023-09-19T00:29:25;19.10;74.00
45785;DHT22;31489;51.404;5.474;2023-09-19T00:31:55;19.10;74.10
45785;DHT22;31489;51.404;5.474;2023-09-19T00:34:21;19.10;74.00
45785;DHT22;31489;51.404;5.474;2023-09-19T00:36:47;19.00;74.00
45785;DHT22;31489;51.404;5.474;2023-09-19T00:39:13;19.00;73.80
45785;DHT22;31489;51.404;5.474;2023-09-19T00:41:38;19.00;73.80
45785;DHT22;31489;51.404;5.474;2023-09-19T00:44:04;18.90;73.60
45785;DHT22;31489;51.404;5.474;2023-09-19T00:46:31;19.00;73.70
45785;DHT22;31489;51.404;5.474;2023-09-19T00:48:58;18.90;73.50
45785;DHT22;31489;51.404;5.474;2023-09-19T00:51:25;18.90;73.50
45785;DHT22;31489;51.404;5.474;2023-09-19T00:53:53;18.90;73.30
45785;DHT22;31489;51.404;5.474;2023-09-19T00:56:19;18.90;73.40
45785;DHT22;31489;51.404;5.474;2023-09-19T00:58:46;18.90;73.30
45785;DHT22;31489;51.404;5.474;2023-09-19T01:01:13;18.90;73.30
45785;DHT22;31489;51.404;5.474;2023-09-19T01:03:41;18.90;73.30
45785;DHT22;31489;51.404;5.474;2023-09-19T01:06:07;18.90;73.20
45785;DHT22;31489;51.404;5.474;2023-09-19T01:08:34;18.90;73.10
45785;DHT22;31489;51.404;5.474;2023-09-19T01:11:32;18.80;73.00
45785;DHT22;31489;51.404;5.474;2023-09-19T01:27:53;18.80;72.40
45785;DHT22;31489;51.404;5.474;2023-09-19T01:30:26;18.80;72.10
45785;DHT22;31489;51.404;5.474;2023-09-19T01:32:53;18.80;72.20
45785;DHT22;31489;51.404;5.474;2023-09-19T01:35:19;18.80;72.10
45785;DHT22;31489;51.404;5.474;2023-09-19T01:37:45;18.70;71.90
45785;DHT22;31489;51.404;5.474;2023-09-19T01:40:17;18.70;71.80
45785;DHT22;31489;51.404;5.474;2023-09-19T01:42:49;18.70;71.50
45785;DHT22;31489;51.404;5.474;2023-09-19T01:50:43;18.60;71.20
45785;DHT22;31489;51.404;5.474;2023-09-19T01:53:25;18.60;71.30
45785;DHT22;31489;51.404;5.474;2023-09-19T01:55:54;18.60;71.20
45785;DHT22;31489;51.404;5.474;2023-09-19T01:58:21;18.60;71.30
45785;DHT22;31489;51.404;5.474;2023-09-19T02:00:51;18.60;71.20
45785;DHT22;31489;51.404;5.474;2023-09-19T02:03:18;18.60;70.90
45785;DHT22;31489;51.404;5.474;2023-09-19T02:05:51;18.60;71.10
45785;DHT22;31489;51.404;5.474;2023-09-19T02:08:21;18.60;71.00
45785;DHT22;31489;51.404;5.474;2023-09-19T02:10:49;18.60;70.90
45785;DHT22;31489;51.404;5.474;2023-09-19T02:13:16;18.60;71.00
45785;DHT22;31489;51.404;5.474;2023-09-19T02:15:42;18.50;70.70
45785;DHT22;31489;51.404;5.474;2023-09-19T02:18:10;18.60;70.70
45785;DHT22;31489;51.404;5.474;2023-09-19T02:20:37;18.60;70.70
45785;DHT22;31489;51.404;5.474;2023-09-19T02:23:03;18.60;70.50
45785;DHT22;31489;51.404;5.474;2023-09-19T02:25:29;18.60;70.30
45785;DHT22;31489;51.404;5.474;2023-09-19T02:27:56;18.60;70.00
45785;DHT22;31489;51.404;5.474;2023-09-19T02:30:24;18.60;69.90
45785;DHT22;31489;51.404;5.474;2023-09-19T02:32:51;18.50;70.00
45785;DHT22;31489;51.404;5.474;2023-09-19T02:35:17;18.50;70.00
45785;DHT22;31489;51.404;5.474;2023-09-19T02:37:46;18.50;69.90
45785;DHT22;31489;51.404;5.474;2023-09-19T02:40:12;18.50;69.90
45785;DHT22;31489;51.404;5.474;2023-09-19T02:42:47;18.50;69.90
45785;DHT22;31489;51.404;5.474;2023-09-19T02:45:17;18.40;69.40
45785;DHT22;31489;51.404;5.474;2023-09-19T02:47:46;18.40;69.40
45785;DHT22;31489;51.404;5.474;2023-09-19T02:50:13;18.40;69.70
45785;DHT22;31489;51.404;5.474;2023-09-19T02:52:42;18.40;69.70
45785;DHT22;31489;51.404;5.474;2023-09-19T02:55:11;18.40;70.00
45785;DHT22;31489;51.404;5.474;2023-09-19T02:57:38;18.40;69.80
45785;DHT22;31489;51.404;5.474;2023-09-19T03:00:08;18.40;69.90
45785;DHT22;31489;51.404;5.474;2023-09-19T03:02:36;18.40;69.90
45785;DHT22;31489;51.404;5.474;2023-09-19T03:05:01;18.30;69.90
45785;DHT22;31489;51.404;5.474;2023-09-19T03:07:29;18.30;69.90
45785;DHT22;31489;51.404;5.474;2023-09-19T03:09:54;18.30;70.00
45785;DHT22;31489;51.404;5.474;2023-09-19T03:12:20;18.30;69.80
45785;DHT22;31489;51.404;5.474;2023-09-19T03:14:48;18.30;70.00
45785;DHT22;31489;51.404;5.474;2023-09-19T03:17:13;18.30;69.90
45785;DHT22;31489;51.404;5.474;2023-09-19T03:19:40;18.30;69.90
45785;DHT22;31489;51.404;5.474;2023-09-19T03:22:06;18.30;69.90
45785;DHT22;31489;51.404;5.474;2023-09-19T03:24:32;18.30;70.00
45785;DHT22;31489;51.404;5.474;2023-09-19T03:26:59;18.30;70.00
45785;DHT22;31489;51.404;5.474;2023-09-19T03:29:25;18.30;70.10
45785;DHT22;31489;51.404;5.474;2023-09-19T03:31:51;18.20;70.00
45785;DHT22;31489;51.404;5.474;2023-09-19T03:34:17;18.30;70.10
45785;DHT22;31489;51.404;5.474;2023-09-19T03:36:42;18.30;70.10
45785;DHT22;31489;51.404;5.474;2023-09-19T03:39:08;18.30;70.10
45785;DHT22;31489;51.404;5.474;2023-09-19T03:41:34;18.30;70.10
45785;DHT22;31489;51.404;5.474;2023-09-19T03:44:02;18.30;70.10
45785;DHT22;31489;51.404;5.474;2023-09-19T03:46:28;18.30;70.10
45785;DHT22;31489;51.404;5.474;2023-09-19T03:48:54;18.30;70.80
45785;DHT22;31489;51.404;5.474;2023-09-19T03:51:20;18.20;70.30
45785;DHT22;31489;51.404;5.474;2023-09-19T03:53:46;18.20;70.30
45785;DHT22;31489;51.404;5.474;2023-09-19T03:56:12;18.20;70.30
45785;DHT22;31489;51.404;5.474;2023-09-19T03:58:37;18.20;70.50
45785;DHT22;31489;51.404;5.474;2023-09-19T04:01:05;18.20;70.60
45785;DHT22;31489;51.404;5.474;2023-09-19T04:03:33;18.20;70.70
45785;DHT22;31489;51.404;5.474;2023-09-19T04:06:25;18.20;70.70
45785;DHT22;31489;51.404;5.474;2023-09-19T04:08:52;18.20;70.80
45785;DHT22;31489;51.404;5.474;2023-09-19T04:11:18;18.20;70.90
45785;DHT22;31489;51.404;5.474;2023-09-19T04:13:44;18.20;71.00
45785;DHT22;31489;51.404;5.474;2023-09-19T04:16:10;18.20;71.10
45785;DHT22;31489;51.404;5.474;2023-09-19T04:18:35;18.20;71.10
45785;DHT22;31489;51.404;5.474;2023-09-19T04:21:04;18.20;71.10
45785;DHT22;31489;51.404;5.474;2023-09-19T04:23:31;18.10;71.10
45785;DHT22;31489;51.404;5.474;2023-09-19T04:25:57;18.10;71.20
45785;DHT22;31489;51.404;5.474;2023-09-19T04:28:23;18.10;71.20
45785;DHT22;31489;51.404;5.474;2023-09-19T04:30:50;18.10;71.20
45785;DHT22;31489;51.404;5.474;2023-09-19T04:33:15;18.10;71.30
45785;DHT22;31489;51.404;5.474;2023-09-19T04:35:41;18.10;71.30
45785;DHT22;31489;51.404;5.474;2023-09-19T04:38:10;18.10;71.50
45785;DHT22;31489;51.404;5.474;2023-09-19T04:40:35;18.10;71.60
45785;DHT22;31489;51.404;5.474;2023-09-19T04:43:01;18.10;71.60
45785;DHT22;31489;51.404;5.474;2023-09-19T04:45:28;18.10;71.50
45785;DHT22;31489;51.404;5.474;2023-09-19T04:47:54;18.10;71.60
45785;DHT22;31489;51.404;5.474;2023-09-19T04:50:21;18.10;71.60
45785;DHT22;31489;51.404;5.474;2023-09-19T04:52:51;18.10;71.70
45785;DHT22;31489;51.404;5.474;2023-09-19T04:55:22;18.10;71.70
45785;DHT22;31489;51.404;5.474;2023-09-19T04:57:49;18.10;71.70
45785;DHT22;31489;51.404;5.474;2023-09-19T05:00:16;18.10;71.90
45785;DHT22;31489;51.404;5.474;2023-09-19T05:02:44;18.10;72.00
45785;DHT22;31489;51.404;5.474;2023-09-19T05:05:10;18.10;72.00
45785;DHT22;31489;51.404;5.474;2023-09-19T05:07:42;18.10;71.90
45785;DHT22;31489;51.404;5.474;2023-09-19T05:10:14;18.20;71.90
45785;DHT22;31489;51.404;5.474;2023-09-19T05:12:41;18.20;72.00
45785;DHT22;31489;51.404;5.474;2023-09-19T05:15:08;18.20;71.90
45785;DHT22;31489;51.404;5.474;2023-09-19T05:17:34;18.20;71.80
45785;DHT22;31489;51.404;5.474;2023-09-19T05:20:01;18.20;71.90
45785;DHT22;31489;51.404;5.474;2023-09-19T05:22:40;18.20;71.90
45785;DHT22;31489;51.404;5.474;2023-09-19T05:25:07;18.20;71.90
45785;DHT22;31489;51.404;5.474;2023-09-19T05:27:32;18.20;71.90
45785;DHT22;31489;51.404;5.474;2023-09-19T05:29:59;18.20;72.10
45785;DHT22;31489;51.404;5.474;2023-09-19T05:32:25;18.10;71.90
45785;DHT22;31489;51.404;5.474;2023-09-19T05:34:50;18.10;72.00
45785;DHT22;31489;51.404;5.474;2023-09-19T05:37:19;18.10;72.10
45785;DHT22;31489;51.404;5.474;2023-09-19T05:39:45;18.10;72.10
45785;DHT22;31489;51.404;5.474;2023-09-19T05:42:10;18.10;72.20
45785;DHT22;31489;51.404;5.474;2023-09-19T05:44:36;18.10;72.30
45785;DHT22;31489;51.404;5.474;2023-09-19T05:47:03;18.00;72.40
45785;DHT22;31489;51.404;5.474;2023-09-19T05:49:29;18.00;72.40
45785;DHT22;31489;51.404;5.474;2023-09-19T05:51:57;18.00;72.60
45785;DHT22;31489;51.404;5.474;2023-09-19T05:54:24;18.00;72.80
45785;DHT22;31489;51.404;5.474;2023-09-19T05:56:50;18.00;72.90
45785;DHT22;31489;51.404;5.474;2023-09-19T05:59:18;18.00;73.10
45785;DHT22;31489;51.404;5.474;2023-09-19T06:01:44;18.00;73.20
45785;DHT22;31489;51.404;5.474;2023-09-19T06:04:11;18.00;73.20
45785;DHT22;31489;51.404;5.474;2023-09-19T06:06:37;18.10;73.30
45785;DHT22;31489;51.404;5.474;2023-09-19T06:09:05;18.10;73.20
45785;DHT22;31489;51.404;5.474;2023-09-19T06:11:31;18.10;73.30
45785;DHT22;31489;51.404;5.474;2023-09-19T06:14:01;18.10;73.40
45785;DHT22;31489;51.404;5.474;2023-09-19T06:16:28;18.10;73.40
45785;DHT22;31489;51.404;5.474;2023-09-19T06:18:54;18.10;73.40
45785;DHT22;31489;51.404;5.474;2023-09-19T06:21:22;18.10;73.50
45785;DHT22;31489;51.404;5.474;2023-09-19T06:23:48;18.10;73.50
45785;DHT22;31489;51.404;5.474;2023-09-19T06:26:14;18.10;73.50
45785;DHT22;31489;51.404;5.474;2023-09-19T06:28:40;18.10;73.50
45785;DHT22;31489;51.404;5.474;2023-09-19T06:31:06;18.10;73.80
45785;DHT22;31489;51.404;5.474;2023-09-19T06:33:35;18.10;73.90
45785;DHT22;31489;51.404;5.474;2023-09-19T06:36:07;18.10;74.00
45785;DHT22;31489;51.404;5.474;2023-09-19T06:38:33;18.10;74.10
45785;DHT22;31489;51.404;5.474;2023-09-19T06:41:03;18.10;74.20
45785;DHT22;31489;51.404;5.474;2023-09-19T06:43:32;18.10;74.20
45785;DHT22;31489;51.404;5.474;2023-09-19T06:46:01;18.20;74.40
45785;DHT22;31489;51.404;5.474;2023-09-19T06:48:28;18.20;74.30
45785;DHT22;31489;51.404;5.474;2023-09-19T06:50:57;18.10;74.40
45785;DHT22;31489;51.404;5.474;2023-09-19T06:53:24;18.20;74.50
45785;DHT22;31489;51.404;5.474;2023-09-19T06:55:53;18.20;74.50
45785;DHT22;31489;51.404;5.474;2023-09-19T06:58:19;18.30;74.50
45785;DHT22;31489;51.404;5.474;2023-09-19T07:00:45;18.20;74.60
45785;DHT22;31489;51.404;5.474;2023-09-19T07:03:11;18.30;74.70
45785;DHT22;31489;51.404;5.474;2023-09-19T07:05:39;18.30;74.70
45785;DHT22;31489;51.404;5.474;2023-09-19T07:08:06;18.30;74.70
45785;DHT22;31489;51.404;5.474;2023-09-19T07:10:32;18.40;74.70
45785;DHT22;31489;51.404;5.474;2023-09-19T07:13:08;18.40;74.70
45785;DHT22;31489;51.404;5.474;2023-09-19T07:15:38;18.40;74.80
45785;DHT22;31489;51.404;5.474;2023-09-19T07:18:07;18.40;74.80
45785;DHT22;31489;51.404;5.474;2023-09-19T07:20:36;18.50;74.80
45785;DHT22;31489;51.404;5.474;2023-09-19T07:23:07;18.50;74.70
45785;DHT22;31489;51.404;5.474;2023-09-19T07:25:38;18.60;74.80
45785;DHT22;31489;51.404;5.474;2023-09-19T07:28:06;18.60;74.50
45785;DHT22;31489;51.404;5.474;2023-09-19T07:30:36;18.60;74.60
45785;DHT22;31489;51.404;5.474;2023-09-19T07:33:07;18.60;74.70
45785;DHT22;31489;51.404;5.474;2023-09-19T07:35:33;18.70;74.60
45785;DHT22;31489;51.404;5.474;2023-09-19T07:38:01;18.70;74.50
45785;DHT22;31489;51.404;5.474;2023-09-19T07:40:27;18.70;74.60
45785;DHT22;31489;51.404;5.474;2023-09-19T07:42:55;18.80;74.70
45785;DHT22;31489;51.404;5.474;2023-09-19T07:45:24;18.80;74.60
45785;DHT22;31489;51.404;5.474;2023-09-19T07:47:51;18.90;74.60
45785;DHT22;31489;51.404;5.474;2023-09-19T07:50:17;18.90;74.60
45785;DHT22;31489;51.404;5.474;2023-09-19T07:52:50;19.00;74.40
45785;DHT22;31489;51.404;5.474;2023-09-19T07:55:22;19.00;74.30
45785;DHT22;31489;51.404;5.474;2023-09-19T07:57:54;19.10;74.00
45785;DHT22;31489;51.404;5.474;2023-09-19T08:00:20;19.10;74.10
45785;DHT22;31489;51.404;5.474;2023-09-19T08:02:46;19.10;73.90
45785;DHT22;31489;51.404;5.474;2023-09-19T08:05:13;19.20;74.00
45785;DHT22;31489;51.404;5.474;2023-09-19T08:07:44;19.20;73.90
45785;DHT22;31489;51.404;5.474;2023-09-19T08:10:17;19.20;73.90
45785;DHT22;31489;51.404;5.474;2023-09-19T08:12:45;19.30;73.80
45785;DHT22;31489;51.404;5.474;2023-09-19T08:15:18;19.30;73.90
45785;DHT22;31489;51.404;5.474;2023-09-19T08:17:49;19.40;73.80
45785;DHT22;31489;51.404;5.474;2023-09-19T08:20:15;19.40;73.20
45785;DHT22;31489;51.404;5.474;2023-09-19T08:22:47;19.50;73.30
45785;DHT22;31489;51.404;5.474;2023-09-19T08:25:16;19.60;73.20
45785;DHT22;31489;51.404;5.474;2023-09-19T08:27:46;19.60;73.50
45785;DHT22;31489;51.404;5.474;2023-09-19T08:30:18;19.60;73.20
45785;DHT22;31489;51.404;5.474;2023-09-19T08:32:45;19.70;72.90
45785;DHT22;31489;51.404;5.474;2023-09-19T08:35:14;19.70;73.00
45785;DHT22;31489;51.404;5.474;2023-09-19T08:37:39;19.70;73.00
45785;DHT22;31489;51.404;5.474;2023-09-19T08:40:08;19.80;72.90
45785;DHT22;31489;51.404;5.474;2023-09-19T08:42:55;19.80;72.90
45785;DHT22;31489;51.404;5.474;2023-09-19T08:45:22;19.90;72.90
45785;DHT22;31489;51.404;5.474;2023-09-19T08:48:17;19.90;72.90
45785;DHT22;31489;51.404;5.474;2023-09-19T08:50:49;20.00;72.50
45785;DHT22;31489;51.404;5.474;2023-09-19T08:53:26;20.00;72.00
45785;DHT22;31489;51.404;5.474;2023-09-19T08:55:53;20.00;72.20
45785;DHT22;31489;51.404;5.474;2023-09-19T08:58:26;20.10;72.30
45785;DHT22;31489;51.404;5.474;2023-09-19T09:00:58;20.10;72.00
45785;DHT22;31489;51.404;5.474;2023-09-19T09:03:32;20.20;72.50
45785;DHT22;31489;51.404;5.474;2023-09-19T09:05:58;20.20;72.00
45785;DHT22;31489;51.404;5.474;2023-09-19T09:08:24;20.20;72.00
45785;DHT22;31489;51.404;5.474;2023-09-19T09:10:51;20.30;71.70
45785;DHT22;31489;51.404;5.474;2023-09-19T09:13:17;20.30;71.50
45785;DHT22;31489;51.404;5.474;2023-09-19T09:15:43;20.40;71.80
45785;DHT22;31489;51.404;5.474;2023-09-19T09:18:10;20.40;71.40
45785;DHT22;31489;51.404;5.474;2023-09-19T09:20:36;20.40;71.10
45785;DHT22;31489;51.404;5.474;2023-09-19T09:23:01;20.50;70.80
45785;DHT22;31489;51.404;5.474;2023-09-19T09:26:07;20.50;71.10
45785;DHT22;31489;51.404;5.474;2023-09-19T09:28:35;20.50;70.40
45785;DHT22;31489;51.404;5.474;2023-09-19T09:31:02;20.60;70.90
45785;DHT22;31489;51.404;5.474;2023-09-19T09:33:35;20.60;70.80
45785;DHT22;31489;51.404;5.474;2023-09-19T09:36:02;20.70;70.60
45785;DHT22;31489;51.404;5.474;2023-09-19T09:38:49;20.80;70.70
45785;DHT22;31489;51.404;5.474;2023-09-19T09:41:16;20.80;70.10
45785;DHT22;31489;51.404;5.474;2023-09-19T09:43:53;20.90;70.50
45785;DHT22;31489;51.404;5.474;2023-09-19T09:46:20;21.00;70.20
45785;DHT22;31489;51.404;5.474;2023-09-19T09:51:47;21.10;68.90
45785;DHT22;31489;51.404;5.474;2023-09-19T09:54:36;21.20;69.20
45785;DHT22;31489;51.404;5.474;2023-09-19T09:57:09;21.20;69.10
45785;DHT22;31489;51.404;5.474;2023-09-19T10:02:36;21.30;69.60
45785;DHT22;31489;51.404;5.474;2023-09-19T10:05:16;21.40;68.70
45785;DHT22;31489;51.404;5.474;2023-09-19T10:07:54;21.50;68.30
45785;DHT22;31489;51.404;5.474;2023-09-19T10:10:34;21.60;68.70
45785;DHT22;31489;51.404;5.474;2023-09-19T10:13:11;21.70;67.90
45785;DHT22;31489;51.404;5.474;2023-09-19T10:15:39;21.90;69.00
45785;DHT22;31489;51.404;5.474;2023-09-19T10:18:14;22.00;68.90
45785;DHT22;31489;51.404;5.474;2023-09-19T10:20:45;22.30;68.60
45785;DHT22;31489;51.404;5.474;2023-09-19T10:23:11;22.50;67.90
45785;DHT22;31489;51.404;5.474;2023-09-19T10:25:44;22.80;67.90
45785;DHT22;31489;51.404;5.474;2023-09-19T10:28:14;23.10;67.10
45785;DHT22;31489;51.404;5.474;2023-09-19T10:30:44;23.50;67.60
45785;DHT22;31489;51.404;5.474;2023-09-19T10:33:13;23.90;66.50
45785;DHT22;31489;51.404;5.474;2023-09-19T10:35:42;24.20;66.90
45785;DHT22;31489;51.404;5.474;2023-09-19T10:38:13;24.60;65.90
45785;DHT22;31489;51.404;5.474;2023-09-19T10:40:39;25.00;64.10
45785;DHT22;31489;51.404;5.474;2023-09-19T10:43:16;25.40;65.20
45785;DHT22;31489;51.404;5.474;2023-09-19T10:45:49;25.80;63.80
45785;DHT22;31489;51.404;5.474;2023-09-19T10:48:16;26.20;61.40
45785;DHT22;31489;51.404;5.474;2023-09-19T10:51:30;26.60;61.40
45785;DHT22;31489;51.404;5.474;2023-09-19T10:53:52;26.80;60.40
45785;DHT22;31489;51.404;5.474;2023-09-19T10:56:25;27.10;58.80
45785;DHT22;31489;51.404;5.474;2023-09-19T10:59:11;27.20;57.60
45785;DHT22;31489;51.404;5.474;2023-09-19T11:01:49;27.20;55.60
45785;DHT22;31489;51.404;5.474;2023-09-19T11:04:28;27.20;56.10
45785;DHT22;31489;51.404;5.474;2023-09-19T11:07:11;27.00;55.60
45785;DHT22;31489;51.404;5.474;2023-09-19T11:09:51;26.90;54.90
45785;DHT22;31489;51.404;5.474;2023-09-19T11:15:02;26.60;53.80
45785;DHT22;31489;51.404;5.474;2023-09-19T11:17:40;26.40;54.80
45785;DHT22;31489;51.404;5.474;2023-09-19T11:30:42;26.70;54.10
45785;DHT22;31489;51.404;5.474;2023-09-19T11:33:23;26.80;54.30
45785;DHT22;31489;51.404;5.474;2023-09-19T11:36:04;26.90;53.40
45785;DHT22;31489;51.404;5.474;2023-09-19T11:49:16;27.50;51.80
45785;DHT22;31489;51.404;5.474;2023-09-19T11:51:46;27.60;52.70
45785;DHT22;31489;51.404;5.474;2023-09-19T11:54:13;27.60;52.10
45785;DHT22;31489;51.404;5.474;2023-09-19T11:56:51;27.60;51.70
45785;DHT22;31489;51.404;5.474;2023-09-19T11:59:27;27.60;50.70
45785;DHT22;31489;51.404;5.474;2023-09-19T12:01:58;27.50;50.90
45785;DHT22;31489;51.404;5.474;2023-09-19T12:04:36;27.50;51.60
45785;DHT22;31489;51.404;5.474;2023-09-19T12:07:10;27.40;50.40
45785;DHT22;31489;51.404;5.474;2023-09-19T12:09:41;27.40;50.00
45785;DHT22;31489;51.404;5.474;2023-09-19T12:12:10;27.30;51.00
45785;DHT22;31489;51.404;5.474;2023-09-19T12:14:38;27.20;51.20
45785;DHT22;31489;51.404;5.474;2023-09-19T12:17:04;27.10;51.60
45785;DHT22;31489;51.404;5.474;2023-09-19T12:19:30;27.00;51.40
45785;DHT22;31489;51.404;5.474;2023-09-19T12:22:02;26.90;51.50
45785;DHT22;31489;51.404;5.474;2023-09-19T12:24:32;26.80;51.90
45785;DHT22;31489;51.404;5.474;2023-09-19T12:27:05;26.80;52.10
45785;DHT22;31489;51.404;5.474;2023-09-19T12:29:32;26.70;51.70
45785;DHT22;31489;51.404;5.474;2023-09-19T12:32:07;26.70;52.20
45785;DHT22;31489;51.404;5.474;2023-09-19T12:34:33;26.60;52.10
45785;DHT22;31489;51.404;5.474;2023-09-19T12:37:14;26.50;51.90
45785;DHT22;31489;51.404;5.474;2023-09-19T12:40:07;26.50;51.40
45785;DHT22;31489;51.404;5.474;2023-09-19T12:42:49;26.40;51.30
45785;DHT22;31489;51.404;5.474;2023-09-19T12:45:24;26.30;52.10
45785;DHT22;31489;51.404;5.474;2023-09-19T12:48:21;26.10;51.90
45785;DHT22;31489;51.404;5.474;2023-09-19T12:51:12;25.90;52.20
45785;DHT22;31489;51.404;5.474;2023-09-19T12:53:46;25.80;53.00
45785;DHT22;31489;51.404;5.474;2023-09-19T12:56:15;25.60;52.70
45785;DHT22;31489;51.404;5.474;2023-09-19T12:58:59;25.50;54.20
45785;DHT22;31489;51.404;5.474;2023-09-19T13:01:28;25.40;53.30
45785;DHT22;31489;51.404;5.474;2023-09-19T13:04:11;25.40;54.10
45785;DHT22;31489;51.404;5.474;2023-09-19T13:06:44;25.30;53.30
45785;DHT22;31489;51.404;5.474;2023-09-19T13:09:10;25.30;54.00
45785;DHT22;31489;51.404;5.474;2023-09-19T13:11:37;25.20;54.20
45785;DHT22;31489;51.404;5.474;2023-09-19T13:17:01;25.20;54.00
45785;DHT22;31489;51.404;5.474;2023-09-19T13:22:48;25.10;54.00
45785;DHT22;31489;51.404;5.474;2023-09-19T13:25:26;25.10;54.50
45785;DHT22;31489;51.404;5.474;2023-09-19T13:27:55;25.10;54.10
45785;DHT22;31489;51.404;5.474;2023-09-19T13:30:23;25.10;54.10
45785;DHT22;31489;51.404;5.474;2023-09-19T13:33:05;25.10;54.00
45785;DHT22;31489;51.404;5.474;2023-09-19T13:35:35;25.00;54.20
45785;DHT22;31489;51.404;5.474;2023-09-19T13:38:02;25.00;54.80
45785;DHT22;31489;51.404;5.474;2023-09-19T13:40:27;24.90;54.50
45785;DHT22;31489;51.404;5.474;2023-09-19T13:42:56;24.80;54.70
45785;DHT22;31489;51.404;5.474;2023-09-19T13:45:22;24.80;54.50
45785;DHT22;31489;51.404;5.474;2023-09-19T13:47:50;24.70;54.70
45785;DHT22;31489;51.404;5.474;2023-09-19T13:50:15;24.60;55.20
45785;DHT22;31489;51.404;5.474;2023-09-19T13:52:42;24.60;55.20
45785;DHT22;31489;51.404;5.474;2023-09-19T13:55:08;24.50;55.20
45785;DHT22;31489;51.404;5.474;2023-09-19T13:57:34;24.40;55.50
45785;DHT22;31489;51.404;5.474;2023-09-19T13:59:59;24.40;55.60
45785;DHT22;31489;51.404;5.474;2023-09-19T14:02:25;24.40;55.50
45785;DHT22;31489;51.404;5.474;2023-09-19T14:04:51;24.30;55.50
45785;DHT22;31489;51.404;5.474;2023-09-19T14:07:17;24.30;55.70
45785;DHT22;31489;51.404;5.474;2023-09-19T14:09:45;24.30;55.90
45785;DHT22;31489;51.404;5.474;2023-09-19T14:12:11;24.20;56.10
45785;DHT22;31489;51.404;5.474;2023-09-19T14:14:37;24.20;56.10
45785;DHT22;31489;51.404;5.474;2023-09-19T14:17:04;24.20;56.20
45785;DHT22;31489;51.404;5.474;2023-09-19T14:19:30;24.20;56.50
45785;DHT22;31489;51.404;5.474;2023-09-19T14:21:56;24.10;56.50
45785;DHT22;31489;51.404;5.474;2023-09-19T14:24:22;24.10;56.80
45785;DHT22;31489;51.404;5.474;2023-09-19T14:26:48;24.10;56.90
45785;DHT22;31489;51.404;5.474;2023-09-19T14:29:15;24.10;57.00
45785;DHT22;31489;51.404;5.474;2023-09-19T14:31:41;24.10;57.40
45785;DHT22;31489;51.404;5.474;2023-09-19T14:34:07;24.10;57.20
45785;DHT22;31489;51.404;5.474;2023-09-19T14:36:35;24.10;57.50
45785;DHT22;31489;51.404;5.474;2023-09-19T14:39:00;24.20;57.70
45785;DHT22;31489;51.404;5.474;2023-09-19T14:41:26;24.30;57.90
45785;DHT22;31489;51.404;5.474;2023-09-19T14:43:52;24.30;57.40
45785;DHT22;31489;51.404;5.474;2023-09-19T14:46:18;24.40;57.30
45785;DHT22;31489;51.404;5.474;2023-09-19T14:48:45;24.40;57.20
45785;DHT22;31489;51.404;5.474;2023-09-19T14:51:14;24.40;57.20
45785;DHT22;31489;51.404;5.474;2023-09-19T14:53:40;24.50;57.00
45785;DHT22;31489;51.404;5.474;2023-09-19T14:56:10;24.50;57.10
45785;DHT22;31489;51.404;5.474;2023-09-19T14:58:37;24.40;56.80
45785;DHT22;31489;51.404;5.474;2023-09-19T15:01:09;24.40;57.10
45785;DHT22;31489;51.404;5.474;2023-09-19T15:03:38;24.40;56.80
45785;DHT22;31489;51.404;5.474;2023-09-19T15:06:15;24.40;57.30
45785;DHT22;31489;51.404;5.474;2023-09-19T15:08:44;24.40;57.10
45785;DHT22;31489;51.404;5.474;2023-09-19T15:11:19;24.40;57.20
45785;DHT22;31489;51.404;5.474;2023-09-19T15:13:46;24.30;57.20
45785;DHT22;31489;51.404;5.474;2023-09-19T15:16:12;24.30;57.20
45785;DHT22;31489;51.404;5.474;2023-09-19T15:18:41;24.30;57.20
45785;DHT22;31489;51.404;5.474;2023-09-19T15:21:08;24.20;57.20
45785;DHT22;31489;51.404;5.474;2023-09-19T15:23:36;24.20;57.20
45785;DHT22;31489;51.404;5.474;2023-09-19T15:26:02;24.20;57.50
45785;DHT22;31489;51.404;5.474;2023-09-19T15:28:29;24.20;57.50
45785;DHT22;31489;51.404;5.474;2023-09-19T15:31:04;24.20;57.60
45785;DHT22;31489;51.404;5.474;2023-09-19T15:33:32;24.20;57.30
45785;DHT22;31489;51.404;5.474;2023-09-19T15:36:14;24.10;57.70
45785;DHT22;31489;51.404;5.474;2023-09-19T15:39:02;24.10;57.70
45785;DHT22;31489;51.404;5.474;2023-09-19T15:41:31;24.10;57.50
45785;DHT22;31489;51.404;5.474;2023-09-19T15:43:57;24.10;57.50
45785;DHT22;31489;51.404;5.474;2023-09-19T15:46:27;24.00;57.50
45785;DHT22;31489;51.404;5.474;2023-09-19T15:48:53;23.90;57.80
45785;DHT22;31489;51.404;5.474;2023-09-19T15:51:19;23.90;58.10
45785;DHT22;31489;51.404;5.474;2023-09-19T15:53:46;23.90;58.10
45785;DHT22;31489;51.404;5.474;2023-09-19T15:56:14;23.90;58.00
45785;DHT22;31489;51.404;5.474;2023-09-19T15:58:40;23.80;58.00
45785;DHT22;31489;51.404;5.474;2023-09-19T16:01:07;23.80;58.20
45785;DHT22;31489;51.404;5.474;2023-09-19T16:03:42;23.70;58.30
45785;DHT22;31489;51.404;5.474;2023-09-19T16:06:13;23.70;58.40
45785;DHT22;31489;51.404;5.474;2023-09-19T16:08:46;23.60;58.30
45785;DHT22;31489;51.404;5.474;2023-09-19T16:11:13;23.60;58.30
45785;DHT22;31489;51.404;5.474;2023-09-19T16:13:40;23.50;58.60
45785;DHT22;31489;51.404;5.474;2023-09-19T16:16:12;23.50;58.90
45785;DHT22;31489;51.404;5.474;2023-09-19T16:21:14;23.40;59.00
45785;DHT22;31489;51.404;5.474;2023-09-19T16:23:40;23.40;59.30
45785;DHT22;31489;51.404;5.474;2023-09-19T16:26:07;23.40;59.20
45785;DHT22;31489;51.404;5.474;2023-09-19T16:28:35;23.40;59.20
45785;DHT22;31489;51.404;5.474;2023-09-19T16:31:02;23.30;59.20
45785;DHT22;31489;51.404;5.474;2023-09-19T16:33:31;23.30;59.50
45785;DHT22;31489;51.404;5.474;2023-09-19T16:35:58;23.30;59.40
45785;DHT22;31489;51.404;5.474;2023-09-19T16:38:25;23.30;59.50
45785;DHT22;31489;51.404;5.474;2023-09-19T16:40:55;23.20;59.50
45785;DHT22;31489;51.404;5.474;2023-09-19T16:43:22;23.20;59.50